createdAt,value
2018-09-10T00:01:01.282Z,-83
2018-09-10T00:03:31.577Z,-83
2018-09-10T00:06:01.803Z,-82
2018-09-10T00:08:32.103Z,-83
2018-09-10T00:11:02.431Z,-83
2018-09-10T00:13:32.726Z,-83
2018-09-10T00:16:03.005Z,-83
2018-09-10T00:18:33.274Z,-82
2018-09-10T00:21:03.633Z,-83
2018-09-10T00:23:33.917Z,-83
2018-09-10T00:26:04.202Z,-82
2018-09-10T00:28:34.449Z,-83
2018-09-10T00:31:04.729Z,-82
2018-09-10T00:33:34.990Z,-83
2018-09-10T00:36:05.272Z,-82
2018-09-10T00:38:35.563Z,-82
2018-09-10T00:41:05.799Z,-82
2018-09-10T00:43:36.071Z,-82
2018-09-10T00:46:06.303Z,-82
2018-09-10T00:48:36.593Z,-82
2018-09-10T00:51:06.862Z,-82
2018-09-10T00:53:37.154Z,-83
2018-09-10T00:56:07.406Z,-82
2018-09-10T00:58:37.690Z,-83
2018-09-10T01:01:07.972Z,-82
2018-09-10T01:03:38.258Z,-83
2018-09-10T01:06:08.515Z,-82
2018-09-10T01:08:38.774Z,-83
2018-09-10T01:11:08.976Z,-83
2018-09-10T01:13:39.266Z,-83
2018-09-10T01:16:09.525Z,-83
2018-09-10T01:18:39.884Z,-83
2018-09-10T01:21:10.161Z,-82
2018-09-10T01:23:40.494Z,-82
2018-09-10T01:26:10.815Z,-82
2018-09-10T01:28:41.124Z,-82
2018-09-10T01:31:11.391Z,-83
2018-09-10T01:33:46.824Z,-82
2018-09-10T01:36:17.148Z,-82
2018-09-10T01:38:47.469Z,-82
2018-09-10T01:41:17.752Z,-83
2018-09-10T01:43:48.043Z,-82
2018-09-10T01:46:18.345Z,-82
2018-09-10T01:48:48.945Z,-83
2018-09-10T01:51:19.246Z,-83
2018-09-10T01:53:49.546Z,-82
2018-09-10T01:56:19.815Z,-82
2018-09-10T01:58:50.206Z,-82
2018-09-10T02:01:20.473Z,-82
2018-09-10T02:03:50.770Z,-82
2018-09-10T02:06:21.214Z,-82
2018-09-10T02:08:51.522Z,-83
2018-09-10T02:11:21.820Z,-82
2018-09-10T02:13:52.130Z,-82
2018-09-10T02:16:22.394Z,-82
2018-09-10T02:18:52.669Z,-82
2018-09-10T02:21:22.922Z,-82
2018-09-10T02:23:53.175Z,-83
2018-09-10T02:26:23.386Z,-82
2018-09-10T02:28:53.640Z,-82
2018-09-10T02:31:23.865Z,-82
2018-09-10T02:33:54.122Z,-82
2018-09-10T02:36:24.338Z,-82
2018-09-10T02:38:54.628Z,-82
2018-09-10T02:41:24.844Z,-82
2018-09-10T02:43:55.126Z,-82
2018-09-10T02:46:25.464Z,-83
2018-09-10T02:48:55.854Z,-82
2018-09-10T02:51:26.176Z,-83
2018-09-10T02:53:56.417Z,-83
2018-09-10T02:56:26.642Z,-82
2018-09-10T02:58:56.889Z,-82
2018-09-10T03:01:27.123Z,-83
2018-09-10T03:03:57.458Z,-82
2018-09-10T03:06:27.703Z,-83
2018-09-10T03:08:57.984Z,-82
2018-09-10T03:11:28.210Z,-83
2018-09-10T03:13:58.466Z,-83
2018-09-10T03:16:28.697Z,-82
2018-09-10T03:18:59.013Z,-82
2018-09-10T03:21:29.228Z,-83
2018-09-10T03:23:59.839Z,-82
2018-09-10T03:26:30.047Z,-82
2018-09-10T03:29:00.322Z,-83
2018-09-10T03:31:30.538Z,-83
2018-09-10T03:34:00.837Z,-82
2018-09-10T03:36:31.055Z,-82
2018-09-10T03:39:01.347Z,-82
2018-09-10T03:41:31.574Z,-82
2018-09-10T03:44:01.825Z,-82
2018-09-10T03:46:32.174Z,-82
2018-09-10T03:49:02.467Z,-82
2018-09-10T03:51:32.697Z,-82
2018-09-10T03:54:03.178Z,-83
2018-09-10T03:56:33.407Z,-83
2018-09-10T03:59:03.649Z,-83
2018-09-10T04:01:33.873Z,-83
2018-09-10T04:04:04.155Z,-82
2018-09-10T04:06:34.381Z,-82
2018-09-10T04:09:05.817Z,-83
2018-09-10T04:11:36.071Z,-83
2018-09-10T04:14:06.378Z,-83
2018-09-10T04:16:36.657Z,-83
2018-09-10T04:19:07.033Z,-83
2018-09-10T04:21:37.355Z,-83
2018-09-10T04:24:07.638Z,-83
2018-09-10T04:26:37.978Z,-83
2018-09-10T04:29:08.261Z,-82
2018-09-10T04:31:38.579Z,-82
2018-09-10T04:34:08.844Z,-82
2018-09-10T04:36:39.173Z,-82
2018-09-10T04:39:10.881Z,-82
2018-09-10T04:41:42.252Z,-82
2018-09-10T04:44:12.837Z,-82
2018-09-10T04:46:43.146Z,-82
2018-09-10T04:49:13.429Z,-82
2018-09-10T04:51:43.729Z,-82
2018-09-10T04:54:14.052Z,-82
2018-09-10T04:56:44.471Z,-82
2018-09-10T04:59:14.778Z,-82
2018-09-10T05:01:45.114Z,-82
2018-09-10T05:04:15.451Z,-82
2018-09-10T05:06:45.805Z,-82
2018-09-10T05:09:16.148Z,-82
2018-09-10T05:11:46.426Z,-82
2018-09-10T05:14:16.959Z,-83
2018-09-10T05:16:47.437Z,-82
2018-09-10T05:19:17.858Z,-83
2018-09-10T05:21:48.224Z,-83
2018-09-10T05:24:18.524Z,-82
2018-09-10T05:26:48.764Z,-84
2018-09-10T05:29:19.071Z,-85
2018-09-10T05:31:49.325Z,-85
2018-09-10T05:34:19.565Z,-85
2018-09-10T05:36:50.230Z,-85
2018-09-10T05:39:20.537Z,-84
2018-09-10T05:41:50.814Z,-84
2018-09-10T05:44:21.550Z,-83
2018-09-10T05:46:51.887Z,-84
2018-09-10T05:49:22.183Z,-83
2018-09-10T05:51:52.638Z,-84
2018-09-10T05:54:22.908Z,-84
2018-09-10T05:56:53.164Z,-83
2018-09-10T05:59:23.434Z,-84
2018-09-10T06:01:53.653Z,-81
2018-09-10T06:04:23.959Z,-80
2018-09-10T06:06:54.177Z,-81
2018-09-10T06:09:24.456Z,-80
2018-09-10T06:11:54.697Z,-80
2018-09-10T06:14:24.914Z,-80
2018-09-10T06:16:55.198Z,-80
2018-09-10T06:19:25.444Z,-80
2018-09-10T06:21:55.692Z,-80
2018-09-10T06:24:25.906Z,-81
2018-09-10T06:26:56.289Z,-80
2018-09-10T06:29:26.529Z,-81
2018-09-10T06:31:56.811Z,-81
2018-09-10T06:34:27.146Z,-81
2018-09-10T06:36:57.429Z,-80
2018-09-10T06:39:27.690Z,-80
2018-09-10T06:41:57.963Z,-80
2018-09-10T06:44:28.193Z,-82
2018-09-10T06:46:58.466Z,-80
2018-09-10T06:49:28.681Z,-81
2018-09-10T06:51:58.964Z,-81
2018-09-10T06:54:29.356Z,-81
2018-09-10T06:56:59.585Z,-81
2018-09-10T06:59:29.855Z,-81
2018-09-10T07:02:00.165Z,-81
2018-09-10T07:04:30.681Z,-80
2018-09-10T07:07:00.913Z,-81
2018-09-10T07:09:31.217Z,-80
2018-09-10T07:12:01.645Z,-80
2018-09-10T07:14:32.013Z,-80
2018-09-10T07:17:02.289Z,-81
2018-09-10T07:19:32.703Z,-80
2018-09-10T07:22:03.103Z,-81
2018-09-10T07:24:33.722Z,-81
2018-09-10T07:27:03.971Z,-81
2018-09-10T07:29:34.375Z,-80
2018-09-10T07:32:04.757Z,-81
2018-09-10T07:34:35.063Z,-82
2018-09-10T07:37:05.609Z,-82
2018-09-10T07:39:35.942Z,-82
2018-09-10T07:42:06.171Z,-81
2018-09-10T07:44:36.467Z,-82
2018-09-10T07:47:06.725Z,-81
2018-09-10T07:49:37.034Z,-80
2018-09-10T07:52:07.706Z,-82
2018-09-10T07:54:38.033Z,-81
2018-09-10T07:57:08.618Z,-82
2018-09-10T07:59:38.930Z,-82
2018-09-10T08:02:09.207Z,-82
2018-09-10T08:04:39.577Z,-83
2018-09-10T08:07:10.039Z,-81
2018-09-10T08:09:40.718Z,-82
2018-09-10T08:12:10.870Z,-81
2018-09-10T08:14:41.401Z,-81
2018-09-10T08:17:11.686Z,-82
2018-09-10T08:19:42.101Z,-81
2018-09-10T08:22:12.326Z,-82
2018-09-10T08:24:42.625Z,-82
2018-09-10T08:27:13.120Z,-82
2018-09-10T08:29:43.693Z,-82
2018-09-10T08:32:13.911Z,-82
2018-09-10T08:34:44.229Z,-82
2018-09-10T08:37:14.442Z,-82
2018-09-10T08:39:44.701Z,-82
2018-09-10T08:42:15.091Z,-83
2018-09-10T08:44:45.578Z,-81
2018-09-10T08:47:15.967Z,-81
2018-09-10T08:49:46.233Z,-81
2018-09-10T08:52:17.669Z,-81
2018-09-10T08:54:48.506Z,-81
2018-09-10T08:57:18.779Z,-82
2018-09-10T08:59:49.009Z,-81
2018-09-10T09:02:19.293Z,-82
2018-09-10T09:04:49.527Z,-81
2018-09-10T09:07:19.785Z,-82
2018-09-10T09:09:50.033Z,-82
2018-09-10T09:12:20.254Z,-82
2018-09-10T09:14:50.501Z,-82
2018-09-10T09:17:20.716Z,-82
2018-09-10T09:19:51.033Z,-82
2018-09-10T09:22:21.444Z,-82
2018-09-10T09:24:51.860Z,-82
2018-09-10T09:27:22.169Z,-82
2018-09-10T09:29:52.484Z,-82
2018-09-10T09:32:22.966Z,-83
2018-09-10T09:34:57.385Z,-82
2018-09-10T09:38:32.292Z,-82
2018-09-10T09:41:07.774Z,-82
2018-09-10T09:43:43.383Z,-82
2018-09-10T09:46:16.049Z,-82
2018-09-10T09:48:46.366Z,-82
2018-09-10T09:51:16.759Z,-82
2018-09-10T09:53:46.944Z,-82
2018-09-10T09:56:17.203Z,-82
2018-09-10T09:58:47.493Z,-82
2018-09-10T10:01:27.896Z,-82
2018-09-10T10:04:02.438Z,-82
2018-09-10T10:06:32.670Z,-82
2018-09-10T10:09:03.069Z,-83
2018-09-10T10:11:33.410Z,-83
2018-09-10T10:14:03.733Z,-84
2018-09-10T10:16:34.062Z,-82
2018-09-10T10:19:04.456Z,-83
2018-09-10T10:21:34.865Z,-82
2018-09-10T10:24:05.179Z,-82
2018-09-10T10:26:35.442Z,-83
2018-09-10T10:29:05.759Z,-82
2018-09-10T10:31:36.035Z,-82
2018-09-10T10:34:06.323Z,-82
2018-09-10T10:36:36.582Z,-82
2018-09-10T10:39:08.564Z,-82
2018-09-10T10:41:38.791Z,-83
2018-09-10T10:44:09.085Z,-82
2018-09-10T10:46:39.367Z,-82
2018-09-10T10:49:09.702Z,-82
2018-09-10T10:51:39.959Z,-82
2018-09-10T10:54:10.786Z,-82
2018-09-10T10:56:41.234Z,-82
2018-09-10T10:59:11.546Z,-82
2018-09-10T11:01:42.343Z,-82
2018-09-10T11:04:12.695Z,-82
2018-09-10T11:06:42.947Z,-82
2018-09-10T11:09:13.376Z,-82
2018-09-10T11:11:43.790Z,-82
2018-09-10T11:14:14.087Z,-82
2018-09-10T11:16:44.414Z,-82
2018-09-10T11:19:14.737Z,-82
2018-09-10T11:21:46.215Z,-82
2018-09-10T11:24:16.505Z,-82
2018-09-10T11:26:46.770Z,-82
2018-09-10T11:29:17.107Z,-83
2018-09-10T11:31:47.321Z,-82
2018-09-10T11:34:17.568Z,-82
2018-09-10T11:36:47.990Z,-82
2018-09-10T11:39:18.270Z,-82
2018-09-10T11:41:48.497Z,-82
2018-09-10T11:44:19.066Z,-82
2018-09-10T11:46:49.362Z,-82
2018-09-10T11:49:19.641Z,-82
2018-09-10T11:51:49.890Z,-82
2018-09-10T11:54:20.142Z,-82
2018-09-10T11:56:50.421Z,-82
2018-09-10T11:59:20.677Z,-82
2018-09-10T12:01:51.002Z,-82
2018-09-10T12:04:21.327Z,-82
2018-09-10T12:06:51.586Z,-82
2018-09-10T12:09:22.787Z,-83
2018-09-10T12:11:53.128Z,-82
2018-09-10T12:14:23.530Z,-82
2018-09-10T12:16:53.811Z,-82
2018-09-10T12:19:24.070Z,-82
2018-09-10T12:21:54.303Z,-82
2018-09-10T12:24:24.598Z,-83
2018-09-10T12:26:54.879Z,-83
2018-09-10T12:29:25.288Z,-82
2018-09-10T12:31:55.924Z,-82
2018-09-10T12:34:26.295Z,-82
2018-09-10T12:36:56.626Z,-82
2018-09-10T12:39:27.243Z,-82
2018-09-10T12:41:57.458Z,-84
2018-09-10T12:44:27.718Z,-83
2018-09-10T12:46:57.994Z,-82
2018-09-10T12:49:28.278Z,-84
2018-09-10T12:51:58.654Z,-83
2018-09-10T12:54:28.933Z,-83
2018-09-10T12:56:59.173Z,-84
2018-09-10T12:59:29.822Z,-84
2018-09-10T13:02:00.305Z,-85
2018-09-10T13:04:30.643Z,-82
2018-09-10T13:07:00.874Z,-84
2018-09-10T13:09:31.176Z,-82
2018-09-10T13:12:01.407Z,-84
2018-09-10T13:14:31.646Z,-83
2018-09-10T13:17:01.869Z,-83
2018-09-10T13:19:32.330Z,-83
2018-09-10T13:22:02.552Z,-84
2018-09-10T13:24:32.826Z,-84
2018-09-10T13:27:03.164Z,-84
2018-09-10T13:29:33.497Z,-83
2018-09-10T13:32:03.721Z,-83
2018-09-10T13:34:33.990Z,-84
2018-09-10T13:37:04.273Z,-84
2018-09-10T13:39:34.527Z,-83
2018-09-10T13:42:04.770Z,-84
2018-09-10T13:44:35.022Z,-84
2018-09-10T13:47:05.442Z,-84
2018-09-10T13:49:35.691Z,-83
2018-09-10T13:52:05.926Z,-84
2018-09-10T13:54:36.231Z,-84
2018-09-10T13:57:06.614Z,-83
2018-09-10T13:59:36.882Z,-84
2018-09-10T14:02:07.163Z,-84
2018-09-10T14:04:37.548Z,-82
2018-09-10T14:07:07.894Z,-84
2018-09-10T14:09:38.174Z,-84
2018-09-10T14:12:08.942Z,-84
2018-09-10T14:14:39.247Z,-84
2018-09-10T14:17:09.488Z,-84
2018-09-10T14:19:39.853Z,-83
2018-09-10T14:22:10.186Z,-84
2018-09-10T14:24:40.508Z,-84
2018-09-10T14:27:10.892Z,-81
2018-09-10T14:29:41.276Z,-83
2018-09-10T14:32:11.546Z,-83
2018-09-10T14:34:41.955Z,-82
2018-09-10T14:37:12.245Z,-82
2018-09-10T14:39:42.626Z,-83
2018-09-10T14:42:12.957Z,-85
2018-09-10T14:44:43.528Z,-85
2018-09-10T14:47:13.842Z,-85
2018-09-10T14:49:44.185Z,-86
2018-09-10T14:52:14.506Z,-86
2018-09-10T14:54:44.851Z,-85
2018-09-10T14:57:15.197Z,-84
2018-09-10T14:59:45.526Z,-85
2018-09-10T15:02:15.809Z,-85
2018-09-10T15:04:46.103Z,-85
2018-09-10T15:07:16.343Z,-85
2018-09-10T15:09:46.665Z,-85
2018-09-10T15:12:16.974Z,-85
2018-09-10T15:14:47.186Z,-85
2018-09-10T15:17:17.509Z,-86
2018-09-10T15:19:47.809Z,-86
2018-09-10T15:22:18.300Z,-86
2018-09-10T15:24:48.928Z,-86
2018-09-10T15:27:20.674Z,-85
2018-09-10T15:29:51.056Z,-85
2018-09-10T15:32:22.310Z,-85
2018-09-10T15:34:52.694Z,-85
2018-09-10T15:37:22.982Z,-84
2018-09-10T15:39:53.355Z,-85
2018-09-10T15:42:24.831Z,-86
2018-09-10T15:44:56.089Z,-86
2018-09-10T15:47:27.100Z,-84
2018-09-10T15:49:57.426Z,-84
2018-09-10T15:52:27.706Z,-86
2018-09-10T15:54:58.498Z,-85
2018-09-10T15:57:28.804Z,-85
2018-09-10T15:59:59.816Z,-87
2018-09-10T16:02:30.098Z,-84
2018-09-10T16:05:00.520Z,-84
2018-09-10T16:07:30.790Z,-85
2018-09-10T16:10:01.213Z,-86
2018-09-10T16:12:31.523Z,-87
2018-09-10T16:15:02.845Z,-84
2018-09-10T16:17:33.330Z,-86
2018-09-10T16:20:04.205Z,-85
2018-09-10T16:22:34.419Z,-85
2018-09-10T16:25:04.750Z,-86
2018-09-10T16:27:35.173Z,-86
2018-09-10T16:30:06.390Z,-86
2018-09-10T16:32:36.844Z,-85
2018-09-10T16:35:07.134Z,-85
2018-09-10T16:37:37.692Z,-85
2018-09-10T16:40:08.028Z,-85
2018-09-10T16:42:38.868Z,-85
2018-09-10T16:45:09.286Z,-85
2018-09-10T16:47:39.897Z,-85
2018-09-10T16:50:10.286Z,-85
2018-09-10T16:52:40.528Z,-85
2018-09-10T16:55:12.045Z,-85
2018-09-10T16:57:42.806Z,-85
2018-09-10T17:00:13.087Z,-85
2018-09-10T17:02:43.483Z,-85
2018-09-10T17:05:14.130Z,-85
2018-09-10T17:07:44.354Z,-85
2018-09-10T17:10:14.637Z,-85
2018-09-10T17:12:45.326Z,-85
2018-09-10T17:15:15.558Z,-85
2018-09-10T17:17:45.905Z,-85
2018-09-10T17:20:16.286Z,-85
2018-09-10T17:22:46.611Z,-85
2018-09-10T17:25:17.184Z,-85
2018-09-10T17:27:47.487Z,-85
2018-09-10T17:30:17.817Z,-85
2018-09-10T17:32:48.813Z,-85
2018-09-10T17:35:19.180Z,-85
2018-09-10T17:37:49.471Z,-85
2018-09-10T17:40:19.818Z,-85
2018-09-10T17:42:50.274Z,-85
2018-09-10T17:45:20.802Z,-85
2018-09-10T17:47:51.329Z,-85
2018-09-10T17:50:21.666Z,-84
2018-09-10T17:52:52.297Z,-84
2018-09-10T17:55:22.829Z,-85
2018-09-10T17:57:53.910Z,-85
2018-09-10T18:00:26.084Z,-85
2018-09-10T18:02:56.455Z,-84
2018-09-10T18:05:26.790Z,-85
2018-09-10T18:07:58.282Z,-86
2018-09-10T18:10:28.661Z,-86
2018-09-10T18:12:59.383Z,-86
2018-09-10T18:15:29.880Z,-87
2018-09-10T18:18:00.446Z,-86
2018-09-10T18:20:30.959Z,-86
2018-09-10T18:23:01.306Z,-84
2018-09-10T18:25:32.486Z,-86
2018-09-10T18:28:02.924Z,-85
2018-09-10T18:30:33.198Z,-83
2018-09-10T18:33:03.522Z,-84
2018-09-10T18:35:33.855Z,-84
2018-09-10T18:38:04.158Z,-83
2018-09-10T18:40:34.462Z,-82
2018-09-10T18:43:04.823Z,-85
2018-09-10T18:45:35.513Z,-85
2018-09-10T18:48:05.861Z,-85
2018-09-10T18:50:36.235Z,-85
2018-09-10T18:53:07.182Z,-84
2018-09-10T18:55:37.549Z,-84
2018-09-10T18:58:07.861Z,-84
2018-09-10T19:00:38.283Z,-81
2018-09-10T19:03:09.966Z,-82
2018-09-10T19:05:41.388Z,-83
2018-09-10T19:08:12.243Z,-85
2018-09-10T19:10:43.393Z,-84
2018-09-10T19:13:14.946Z,-82
2018-09-10T19:15:46.645Z,-83
2018-09-10T19:18:17.861Z,-82
2018-09-10T19:20:49.675Z,-82
2018-09-10T19:23:20.152Z,-82
2018-09-10T19:25:52.058Z,-82
2018-09-10T19:28:23.181Z,-81
2018-09-10T19:30:54.501Z,-81
2018-09-10T19:33:24.896Z,-82
2018-09-10T19:35:56.469Z,-82
2018-09-10T19:38:28.103Z,-82
2018-09-10T19:40:58.846Z,-83
2018-09-10T19:43:29.589Z,-82
2018-09-10T19:46:01.267Z,-81
2018-09-10T19:48:33.053Z,-81
2018-09-10T19:51:04.351Z,-82
2018-09-10T19:53:34.672Z,-82
2018-09-10T19:56:05.143Z,-82
2018-09-10T19:58:36.858Z,-84
2018-09-10T20:01:08.596Z,-83
2018-09-10T20:03:39.800Z,-82
2018-09-10T20:06:11.555Z,-83
2018-09-10T20:08:42.563Z,-83
2018-09-10T20:11:14.222Z,-84
2018-09-10T20:13:44.791Z,-83
2018-09-10T20:16:15.575Z,-83
2018-09-10T20:18:46.107Z,-83
2018-09-10T20:21:17.344Z,-83
2018-09-10T20:23:48.707Z,-83
2018-09-10T20:26:19.772Z,-83
2018-09-10T20:28:51.512Z,-83
2018-09-10T20:31:21.822Z,-81
2018-09-10T20:33:57.291Z,-80
2018-09-10T20:36:28.054Z,-84
2018-09-10T20:38:59.589Z,-81
2018-09-10T20:41:30.721Z,-83
2018-09-10T20:44:01.882Z,-83
2018-09-10T20:46:33.320Z,-83
2018-09-10T20:49:05.441Z,-83
2018-09-10T20:51:36.570Z,-82
2018-09-10T20:54:07.667Z,-82
2018-09-10T20:56:38.342Z,-83
2018-09-10T20:59:09.614Z,-82
2018-09-10T21:01:40.028Z,-82
2018-09-10T21:04:11.340Z,-83
2018-09-10T21:06:43.194Z,-83
2018-09-10T21:09:14.955Z,-82
2018-09-10T21:11:47.030Z,-82
2018-09-10T21:14:17.486Z,-82
2018-09-10T21:16:48.441Z,-82
2018-09-10T21:19:20.350Z,-83
2018-09-10T21:21:52.071Z,-82
2018-09-10T21:24:23.249Z,-82
2018-09-10T21:26:54.637Z,-82
2018-09-10T21:29:26.722Z,-82
2018-09-10T21:31:58.010Z,-82
2018-09-10T21:34:29.076Z,-82
2018-09-10T21:37:00.548Z,-82
2018-09-10T21:39:31.521Z,-83
2018-09-10T21:42:03.370Z,-83
2018-09-10T21:44:34.754Z,-82
2018-09-10T21:47:06.277Z,-82
2018-09-10T21:49:37.038Z,-82
2018-09-10T21:52:08.830Z,-82
2018-09-10T21:54:40.103Z,-82
2018-09-10T21:57:10.934Z,-82
2018-09-10T21:59:42.554Z,-82
2018-09-10T22:02:13.943Z,-82
2018-09-10T22:04:45.002Z,-82
2018-09-10T22:07:16.297Z,-82
2018-09-10T22:09:47.386Z,-82
2018-09-10T22:12:18.509Z,-82
2018-09-10T22:14:49.757Z,-82
2018-09-10T22:17:20.418Z,-81
2018-09-10T22:19:51.758Z,-82
2018-09-10T22:22:22.738Z,-82
2018-09-10T22:24:54.030Z,-82
2018-09-10T22:27:25.099Z,-82
2018-09-10T22:29:56.366Z,-82
2018-09-10T22:32:27.387Z,-82
2018-09-10T22:34:58.874Z,-82
2018-09-10T22:37:30.064Z,-82
2018-09-10T22:40:00.374Z,-82
2018-09-10T22:42:30.687Z,-83
2018-09-10T22:45:00.998Z,-82
2018-09-10T22:47:31.276Z,-82
2018-09-10T22:50:01.597Z,-82
2018-09-10T22:52:31.846Z,-83
2018-09-10T22:55:02.181Z,-82
2018-09-10T22:57:32.493Z,-82
2018-09-10T23:00:02.821Z,-82
2018-09-10T23:02:33.166Z,-82
2018-09-10T23:05:03.558Z,-82
2018-09-10T23:07:33.856Z,-82
2018-09-10T23:10:04.197Z,-82
2018-09-10T23:12:35.375Z,-82
2018-09-10T23:15:05.737Z,-82
2018-09-10T23:17:36.025Z,-82
2018-09-10T23:20:07.251Z,-82
2018-09-10T23:22:37.517Z,-82
2018-09-10T23:25:07.941Z,-82
2018-09-10T23:27:38.190Z,-82
2018-09-10T23:30:09.426Z,-82
2018-09-10T23:32:39.718Z,-82
2018-09-10T23:35:10.002Z,-82
2018-09-10T23:37:40.309Z,-82
2018-09-10T23:40:10.648Z,-82
2018-09-10T23:42:41.706Z,-82
2018-09-10T23:45:11.991Z,-82
2018-09-10T23:47:42.764Z,-82
2018-09-10T23:50:13.017Z,-82
2018-09-10T23:52:43.342Z,-82
2018-09-10T23:55:13.623Z,-82
2018-09-10T23:57:43.920Z,-83
